createdAt,value
2022-09-03T00:01:55.806Z,3.20
2022-09-03T00:04:44.929Z,3.00
2022-09-03T00:07:58.253Z,3.27
2022-09-03T00:10:41.327Z,3.60
2022-09-03T00:13:14.183Z,2.70
2022-09-03T00:15:43.898Z,3.00
2022-09-03T00:19:02.760Z,3.00
2022-09-03T00:21:52.835Z,2.60
2022-09-03T00:24:27.506Z,3.10
2022-09-03T00:27:16.336Z,2.67
2022-09-03T00:29:55.245Z,2.83
2022-09-03T00:32:33.440Z,3.07
2022-09-03T00:35:16.142Z,2.50
2022-09-03T00:37:47.191Z,3.07
2022-09-03T00:40:34.024Z,2.70
2022-09-03T00:43:17.071Z,2.63
2022-09-03T00:45:55.219Z,3.00
2022-09-03T00:48:29.916Z,3.00
2022-09-03T00:51:18.118Z,2.70
2022-09-03T00:54:00.420Z,2.40
2022-09-03T00:56:39.725Z,2.80
2022-09-03T00:59:26.508Z,3.27
2022-09-03T01:02:10.408Z,2.93
2022-09-03T01:04:54.348Z,2.77
2022-09-03T01:07:38.921Z,3.13
2022-09-03T01:10:27.251Z,3.10
2022-09-03T01:13:06.217Z,3.33
2022-09-03T01:15:46.773Z,4.33
2022-09-03T01:18:27.666Z,3.00
2022-09-03T01:21:15.102Z,2.90
2022-09-03T01:24:46.641Z,3.33
2022-09-03T01:27:33.377Z,2.70
2022-09-03T01:30:09.343Z,2.80
2022-09-03T01:32:48.118Z,3.20
2022-09-03T01:35:30.795Z,2.93
2022-09-03T01:38:17.507Z,3.07
2022-09-03T01:41:23.935Z,3.20
2022-09-03T01:44:05.064Z,3.03
2022-09-03T01:46:41.521Z,2.80
2022-09-03T01:49:22.754Z,3.80
2022-09-03T01:52:03.925Z,3.00
2022-09-03T01:54:56.215Z,3.33
2022-09-03T01:57:50.895Z,2.90
2022-09-03T02:00:21.783Z,2.30
2022-09-03T02:02:55.084Z,3.33
2022-09-03T02:05:27.595Z,3.03
2022-09-03T02:08:03.256Z,2.60
2022-09-03T02:10:40.271Z,3.17
2022-09-03T02:13:12.717Z,3.40
2022-09-03T02:15:46.073Z,3.07
2022-09-03T02:18:21.216Z,3.57
2022-09-03T02:20:51.269Z,3.30
2022-09-03T02:23:27.735Z,2.77
2022-09-03T02:26:01.986Z,3.23
2022-09-03T02:28:35.979Z,3.10
2022-09-03T02:31:06.508Z,2.70
2022-09-03T02:33:40.766Z,3.00
2022-09-03T02:36:13.006Z,3.10
2022-09-03T02:38:44.556Z,2.90
2022-09-03T02:41:15.605Z,2.80
2022-09-03T02:43:52.810Z,2.27
2022-09-03T02:46:27.878Z,3.13
2022-09-03T02:48:58.249Z,2.90
2022-09-03T02:51:27.365Z,2.97
2022-09-03T02:53:56.235Z,3.00
2022-09-03T02:56:28.239Z,3.00
2022-09-03T02:58:57.333Z,2.50
2022-09-03T03:01:26.586Z,2.33
2022-09-03T03:03:57.319Z,3.47
2022-09-03T03:06:26.758Z,2.87
2022-09-03T03:08:56.251Z,3.00
2022-09-03T03:11:27.512Z,3.10
2022-09-03T03:13:56.715Z,2.60
2022-09-03T03:16:26.214Z,3.00
2022-09-03T03:23:43.729Z,2.77
2022-09-03T03:26:15.728Z,3.20
2022-09-03T03:28:44.730Z,3.17
2022-09-03T03:31:17.429Z,3.10
2022-09-03T03:33:52.920Z,3.53
2022-09-03T03:36:23.539Z,2.77
2022-09-03T03:38:56.291Z,2.47
2022-09-03T03:41:27.540Z,3.33
2022-09-03T03:44:00.677Z,2.77
2022-09-03T03:46:33.650Z,3.57
2022-09-03T03:49:03.060Z,2.77
2022-09-03T03:51:32.762Z,3.30
2022-09-03T03:54:05.530Z,2.77
2022-09-03T03:56:36.193Z,3.23
2022-09-03T03:59:05.987Z,3.17
2022-09-03T04:01:35.263Z,2.70
2022-09-03T04:04:05.791Z,3.07
2022-09-03T04:06:37.223Z,3.70
2022-09-03T04:09:07.736Z,3.03
2022-09-03T04:11:37.490Z,2.90
2022-09-03T04:14:06.801Z,3.43
2022-09-03T04:16:35.869Z,2.77
2022-09-03T04:19:05.832Z,3.30
2022-09-03T04:21:38.198Z,2.97
2022-09-03T04:24:09.012Z,3.47
2022-09-03T04:30:14.829Z,2.93
2022-09-03T04:33:04.853Z,3.60
2022-09-03T04:35:40.829Z,3.37
2022-09-03T04:38:20.251Z,4.07
2022-09-03T04:40:59.783Z,3.50
2022-09-03T04:43:31.815Z,2.70
2022-09-03T04:46:06.443Z,3.97
2022-09-03T04:49:21.067Z,3.33
2022-09-03T04:52:08.175Z,3.23
2022-09-03T04:56:05.836Z,3.37
2022-09-03T04:59:12.245Z,3.07
2022-09-03T05:02:20.358Z,3.00
2022-09-03T05:04:54.216Z,3.50
2022-09-03T05:07:24.762Z,3.20
2022-09-03T05:09:59.036Z,4.07
2022-09-03T05:12:27.987Z,3.80
2022-09-03T05:14:59.834Z,3.03
2022-09-03T05:17:29.214Z,3.90
2022-09-03T05:19:58.349Z,3.70
2022-09-03T05:22:27.724Z,3.00
2022-09-03T05:24:57.097Z,3.30
2022-09-03T05:27:27.308Z,3.20
2022-09-03T05:29:57.861Z,3.67
2022-09-03T05:32:32.932Z,3.30
2022-09-03T05:35:02.386Z,3.93
2022-09-03T05:37:32.185Z,3.10
2022-09-03T05:40:01.238Z,3.20
2022-09-03T05:42:31.484Z,4.00
2022-09-03T05:45:02.621Z,3.40
2022-09-03T05:47:36.547Z,3.77
2022-09-03T05:50:06.617Z,3.50
2022-09-03T05:52:36.433Z,3.43
2022-09-03T05:55:07.458Z,3.73
2022-09-03T05:57:38.690Z,4.00
2022-09-03T06:00:11.988Z,3.30
2022-09-03T06:02:42.498Z,3.50
2022-09-03T06:05:17.011Z,3.67
2022-09-03T06:07:49.783Z,4.00
2022-09-03T06:10:23.607Z,3.20
2022-09-03T06:12:55.356Z,3.67
2022-09-03T06:15:28.391Z,3.80
2022-09-03T06:18:01.997Z,4.00
2022-09-03T06:20:36.408Z,2.93
2022-09-03T06:23:06.615Z,3.83
2022-09-03T06:25:37.583Z,4.00
2022-09-03T06:28:09.117Z,4.70
2022-09-03T06:30:42.656Z,3.53
2022-09-03T06:33:12.034Z,3.97
2022-09-03T06:35:43.153Z,4.17
2022-09-03T06:38:12.629Z,3.80
2022-09-03T06:40:49.478Z,4.50
2022-09-03T06:43:20.621Z,4.63
2022-09-03T06:45:59.570Z,4.60
2022-09-03T06:48:31.491Z,4.00
2022-09-03T06:51:03.426Z,3.83
2022-09-03T06:53:39.068Z,3.10
2022-09-03T06:56:10.403Z,4.30
2022-09-03T06:58:45.086Z,4.50
2022-09-03T07:01:19.409Z,3.97
2022-09-03T07:03:56.036Z,3.80
2022-09-03T07:06:28.102Z,3.87
2022-09-03T07:08:58.117Z,3.67
2022-09-03T07:11:33.348Z,4.70
2022-09-03T07:14:02.748Z,3.40
2022-09-03T07:16:36.576Z,4.33
2022-09-03T07:19:07.526Z,4.20
2022-09-03T07:21:37.914Z,3.50
2022-09-03T07:24:08.295Z,3.60
2022-09-03T07:26:40.290Z,3.93
2022-09-03T07:29:09.923Z,4.07
2022-09-03T07:31:42.867Z,4.07
2022-09-03T07:34:16.522Z,3.20
2022-09-03T07:36:48.855Z,4.47
2022-09-03T07:39:19.226Z,4.40
2022-09-03T07:41:51.138Z,4.30
2022-09-03T07:44:20.901Z,3.57
2022-09-03T07:46:52.318Z,4.07
2022-09-03T07:49:22.596Z,3.70
2022-09-03T07:51:54.395Z,4.93
2022-09-03T07:54:26.268Z,3.93
2022-09-03T07:56:56.138Z,4.83
2022-09-03T07:59:26.236Z,3.90
2022-09-03T08:01:57.178Z,4.27
2022-09-03T08:04:26.465Z,4.60
2022-09-03T08:06:57.088Z,4.23
2022-09-03T08:09:26.599Z,4.37
2022-09-03T08:11:55.691Z,5.43
2022-09-03T08:14:25.013Z,4.73
2022-09-03T08:17:00.225Z,5.20
2022-09-03T08:19:29.012Z,4.53
2022-09-03T08:21:58.099Z,5.07
2022-09-03T08:24:27.547Z,4.97
2022-09-03T08:26:56.644Z,5.03
2022-09-03T08:29:27.180Z,4.80
2022-09-03T08:31:59.618Z,4.70
2022-09-03T08:34:29.200Z,4.43
2022-09-03T08:37:02.428Z,4.83
2022-09-03T08:39:32.445Z,5.30
2022-09-03T08:42:43.080Z,5.27
2022-09-03T08:45:18.136Z,4.90
2022-09-03T08:47:53.589Z,4.57
2022-09-03T08:50:28.125Z,4.83
2022-09-03T08:53:03.561Z,4.77
2022-09-03T08:55:36.388Z,4.57
2022-09-03T08:58:09.132Z,4.67
2022-09-03T09:00:49.450Z,4.70
2022-09-03T09:03:54.756Z,4.60
2022-09-03T09:06:36.004Z,5.20
2022-09-03T09:09:17.428Z,4.13
2022-09-03T09:12:00.363Z,4.43
2022-09-03T09:14:40.277Z,4.50
2022-09-03T09:17:33.686Z,4.53
2022-09-03T09:20:13.535Z,4.70
2022-09-03T09:22:47.232Z,4.40
2022-09-03T09:25:21.609Z,4.67
2022-09-03T09:27:57.250Z,4.60
2022-09-03T09:30:26.633Z,4.43
2022-09-03T09:32:56.127Z,3.80
2022-09-03T09:35:26.516Z,4.43
2022-09-03T09:37:58.599Z,4.07
2022-09-03T09:40:34.014Z,4.77
2022-09-03T09:43:08.863Z,4.10
2022-09-03T09:45:41.135Z,4.60
2022-09-03T09:48:18.906Z,4.27
2022-09-03T09:50:49.929Z,5.03
2022-09-03T09:53:21.765Z,4.17
2022-09-03T09:56:00.362Z,4.67
2022-09-03T09:58:33.080Z,4.70
2022-09-03T10:01:13.834Z,5.43
2022-09-03T10:03:55.605Z,4.37
2022-09-03T10:06:46.744Z,4.83
2022-09-03T10:09:19.387Z,4.90
2022-09-03T10:11:53.028Z,4.53
2022-09-03T10:14:26.646Z,4.97
2022-09-03T10:17:05.701Z,4.80
2022-09-03T10:20:05.519Z,4.40
2022-09-03T10:22:56.464Z,4.40
2022-09-03T10:25:33.161Z,4.60
2022-09-03T10:28:03.403Z,5.20
2022-09-03T10:30:47.773Z,4.63
2022-09-03T10:33:24.486Z,5.10
2022-09-03T10:36:02.864Z,4.13
2022-09-03T10:38:38.973Z,4.43
2022-09-03T10:41:24.176Z,5.10
2022-09-03T10:44:15.246Z,4.67
2022-09-03T10:46:59.900Z,4.83
2022-09-03T10:49:50.769Z,3.83
2022-09-03T10:52:29.650Z,4.03
2022-09-03T10:55:16.465Z,4.60
2022-09-03T10:57:56.381Z,4.33
2022-09-03T11:00:26.148Z,5.03
2022-09-03T11:03:48.848Z,4.07
2022-09-03T11:06:22.664Z,5.23
2022-09-03T11:09:02.077Z,4.30
2022-09-03T11:11:40.058Z,3.83
2022-09-03T11:14:15.994Z,4.00
2022-09-03T11:16:49.987Z,4.77
2022-09-03T11:19:26.499Z,4.67
2022-09-03T11:21:56.188Z,4.80
2022-09-03T11:24:28.629Z,5.00
2022-09-03T11:27:18.279Z,4.70
2022-09-03T11:29:57.068Z,3.87
2022-09-03T11:32:36.658Z,3.60
2022-09-03T11:35:16.550Z,4.43
2022-09-03T11:37:56.696Z,3.90
2022-09-03T11:40:35.450Z,4.40
2022-09-03T11:43:17.638Z,4.23
2022-09-03T11:45:47.033Z,4.03
2022-09-03T11:48:32.546Z,4.17
2022-09-03T11:51:01.655Z,4.10
2022-09-03T11:53:39.141Z,3.70
2022-09-03T11:56:20.938Z,4.50
2022-09-03T11:59:18.378Z,4.60
2022-09-03T12:01:53.607Z,3.37
2022-09-03T12:04:28.497Z,3.93
2022-09-03T12:07:22.981Z,4.30
2022-09-03T12:10:08.282Z,4.00
2022-09-03T12:13:02.260Z,4.03
2022-09-03T12:15:57.846Z,3.63
2022-09-03T12:18:29.389Z,3.93
2022-09-03T12:21:08.788Z,4.10
2022-09-03T12:23:45.633Z,3.97
2022-09-03T12:26:18.317Z,3.90
2022-09-03T12:28:53.058Z,3.33
2022-09-03T12:31:29.674Z,3.17
2022-09-03T12:34:06.424Z,3.57
2022-09-03T12:36:52.671Z,3.97
2022-09-03T12:42:35.492Z,3.47
2022-09-03T12:46:09.789Z,4.27
2022-09-03T12:48:29.350Z,2.83
2022-09-03T12:54:03.319Z,3.27
2022-09-03T12:57:04.277Z,2.77
2022-09-03T12:59:41.009Z,3.93
2022-09-03T13:02:20.700Z,3.90
2022-09-03T13:04:52.847Z,4.17
2022-09-03T13:08:24.151Z,4.13
2022-09-03T13:11:09.429Z,4.10
2022-09-03T13:13:58.953Z,4.10
2022-09-03T13:17:17.565Z,3.80
2022-09-03T13:20:52.658Z,3.70
2022-09-03T13:24:13.072Z,3.80
2022-09-03T13:26:57.822Z,3.50
2022-09-03T13:29:49.602Z,4.00
2022-09-03T13:32:36.004Z,3.53
2022-09-03T13:35:14.229Z,3.60
2022-09-03T13:37:49.393Z,4.17
2022-09-03T13:40:44.369Z,3.47
2022-09-03T13:43:32.416Z,3.33
2022-09-03T13:46:08.340Z,3.77
2022-09-03T13:48:59.402Z,3.63
2022-09-03T13:51:33.130Z,3.40
2022-09-03T13:54:30.966Z,3.40
2022-09-03T13:57:32.714Z,3.30
2022-09-03T14:00:16.995Z,3.20
2022-09-03T14:02:59.151Z,2.80
2022-09-03T14:06:02.130Z,3.73
2022-09-03T14:09:01.205Z,3.37
2022-09-03T14:15:08.064Z,3.50
2022-09-03T14:17:51.153Z,3.50
2022-09-03T14:20:28.214Z,3.57
2022-09-03T14:23:05.294Z,3.77
2022-09-03T14:25:35.820Z,2.63
2022-09-03T14:28:31.426Z,2.80
2022-09-03T14:31:16.240Z,3.00
2022-09-03T14:33:57.276Z,4.03
2022-09-03T14:36:36.496Z,3.20
2022-09-03T14:39:36.500Z,3.10
2022-09-03T14:42:57.749Z,3.43
2022-09-03T14:45:54.240Z,2.87
2022-09-03T14:49:12.068Z,3.20
2022-09-03T14:51:59.294Z,3.33
2022-09-03T14:55:16.081Z,2.80
2022-09-03T14:58:23.520Z,3.20
2022-09-03T15:01:02.024Z,3.40
2022-09-03T15:04:15.594Z,3.57
2022-09-03T15:07:08.780Z,3.37
2022-09-03T15:09:44.926Z,3.47
2022-09-03T15:12:26.556Z,3.50
2022-09-03T15:15:00.152Z,4.20
2022-09-03T15:17:49.730Z,4.10
2022-09-03T15:20:25.713Z,3.40
2022-09-03T15:23:43.507Z,3.53
2022-09-03T15:26:42.781Z,4.07
2022-09-03T15:29:47.728Z,3.93
2022-09-03T15:32:35.858Z,3.03
2022-09-03T15:35:12.671Z,3.50
2022-09-03T15:37:51.440Z,3.17
2022-09-03T15:40:33.180Z,3.77
2022-09-03T15:43:12.712Z,3.50
2022-09-03T15:45:58.638Z,3.17
2022-09-03T15:48:39.595Z,3.30
2022-09-03T15:51:18.643Z,3.60
2022-09-03T15:53:55.099Z,3.90
2022-09-03T15:56:30.500Z,3.60
2022-09-03T15:59:15.785Z,3.30
2022-09-03T16:01:55.359Z,3.00
2022-09-03T16:04:45.012Z,3.17
2022-09-03T16:07:32.192Z,3.70
2022-09-03T16:10:26.500Z,3.30
2022-09-03T16:13:08.062Z,4.17
2022-09-03T16:15:45.710Z,3.70
2022-09-03T16:18:26.106Z,3.60
2022-09-03T16:21:02.687Z,4.70
2022-09-03T16:23:39.708Z,4.23
2022-09-03T16:26:15.728Z,3.40
2022-09-03T16:28:50.254Z,3.77
2022-09-03T16:31:40.018Z,4.00
2022-09-03T16:34:19.069Z,3.93
2022-09-03T16:37:01.971Z,3.40
2022-09-03T16:39:50.150Z,3.43
2022-09-03T16:42:30.767Z,3.07
2022-09-03T16:45:19.900Z,4.60
2022-09-03T16:48:26.697Z,3.43
2022-09-03T16:51:12.153Z,3.67
2022-09-03T16:54:06.250Z,3.90
2022-09-03T16:56:56.126Z,3.30
2022-09-03T16:59:57.684Z,3.00
2022-09-03T17:03:13.749Z,3.40
2022-09-03T17:06:18.405Z,2.97
2022-09-03T17:09:01.912Z,3.57
2022-09-03T17:11:48.850Z,3.43
2022-09-03T17:14:51.867Z,4.17
2022-09-03T17:17:38.512Z,3.70
2022-09-03T17:20:15.432Z,2.97
2022-09-03T17:23:00.394Z,3.77
2022-09-03T17:25:37.937Z,4.03
2022-09-03T17:28:26.723Z,3.60
2022-09-03T17:31:00.113Z,4.00
2022-09-03T17:33:53.630Z,3.70
2022-09-03T17:36:27.404Z,3.57
2022-09-03T17:39:31.166Z,3.70
2022-09-03T17:42:06.477Z,3.50
2022-09-03T17:44:49.591Z,3.70
2022-09-03T17:47:54.937Z,3.80
2022-09-03T17:50:27.864Z,3.60
2022-09-03T17:53:01.795Z,3.97
2022-09-03T17:55:36.978Z,3.73
2022-09-03T17:58:15.404Z,3.90
2022-09-03T18:00:54.667Z,3.93
2022-09-03T18:03:30.272Z,3.97
2022-09-03T18:06:04.530Z,3.40
2022-09-03T18:08:44.940Z,3.43
2022-09-03T18:11:20.184Z,3.67
2022-09-03T18:14:04.354Z,3.50
2022-09-03T18:16:36.014Z,4.70
2022-09-03T18:19:18.152Z,4.20
2022-09-03T18:22:08.010Z,3.63
2022-09-03T18:25:02.602Z,3.80
2022-09-03T18:27:55.861Z,3.60
2022-09-03T18:30:44.688Z,3.83
2022-09-03T18:33:34.568Z,3.83
2022-09-03T18:36:21.621Z,4.00
2022-09-03T18:39:08.256Z,4.03
2022-09-03T18:42:15.130Z,4.33
2022-09-03T18:45:23.120Z,4.20
2022-09-03T18:48:26.360Z,5.23
2022-09-03T18:51:24.569Z,3.23
2022-09-03T18:54:45.089Z,3.77
2022-09-03T18:57:42.446Z,4.07
2022-09-03T19:00:31.096Z,4.10
2022-09-03T19:03:46.042Z,3.77
2022-09-03T19:06:45.456Z,4.23
2022-09-03T19:09:50.017Z,4.00
2022-09-03T19:12:58.958Z,3.20
2022-09-03T19:15:50.943Z,3.63
2022-09-03T19:18:56.671Z,4.20
2022-09-03T19:21:50.843Z,3.50
2022-09-03T19:24:45.742Z,3.30
2022-09-03T19:27:58.604Z,3.57
2022-09-03T19:30:59.845Z,4.30
2022-09-03T19:33:53.923Z,4.23
2022-09-03T19:36:46.099Z,4.07
2022-09-03T19:39:44.040Z,3.63
2022-09-03T19:42:37.098Z,4.50
2022-09-03T19:45:31.234Z,4.00
2022-09-03T19:48:27.789Z,4.60
2022-09-03T19:51:23.354Z,4.53
2022-09-03T19:54:09.967Z,4.43
2022-09-03T19:56:57.889Z,4.40
2022-09-03T19:59:45.781Z,3.90
2022-09-03T20:02:33.065Z,4.60
2022-09-03T20:05:21.383Z,4.63
2022-09-03T20:08:12.835Z,3.83
2022-09-03T20:10:44.767Z,4.50
2022-09-03T20:13:16.302Z,4.33
2022-09-03T20:15:52.626Z,3.13
2022-09-03T20:18:31.619Z,4.10
2022-09-03T20:21:11.367Z,3.30
2022-09-03T20:23:48.999Z,3.43
2022-09-03T20:26:25.979Z,3.83
2022-09-03T20:29:05.678Z,3.90
2022-09-03T20:31:45.839Z,4.07
2022-09-03T20:34:28.402Z,4.63
2022-09-03T20:37:04.702Z,4.47
2022-09-03T20:39:48.287Z,3.90
2022-09-03T20:42:37.224Z,3.80
2022-09-03T20:45:12.014Z,4.00
2022-09-03T20:48:01.769Z,3.83
2022-09-03T20:50:43.743Z,4.63
2022-09-03T20:53:28.507Z,4.57
2022-09-03T20:56:03.683Z,4.17
2022-09-03T20:58:43.877Z,3.47
2022-09-03T21:01:17.918Z,4.13
2022-09-03T21:03:53.257Z,4.80
2022-09-03T21:06:31.994Z,4.07
2022-09-03T21:09:09.263Z,4.30
2022-09-03T21:11:50.133Z,4.33
2022-09-03T21:14:26.964Z,4.40
2022-09-03T21:17:06.935Z,4.47
2022-09-03T21:19:45.327Z,4.37
2022-09-03T21:22:23.222Z,4.23
2022-09-03T21:24:57.892Z,4.50
2022-09-03T21:27:37.678Z,4.10
2022-09-03T21:30:11.781Z,4.43
2022-09-03T21:32:48.256Z,4.67
2022-09-03T21:35:24.194Z,4.67
2022-09-03T21:38:00.253Z,4.00
2022-09-03T21:40:32.619Z,4.90
2022-09-03T21:43:14.467Z,4.20
2022-09-03T21:45:53.241Z,5.63
2022-09-03T21:48:28.259Z,4.47
2022-09-03T21:51:00.252Z,5.03
2022-09-03T21:53:38.088Z,5.77
2022-09-03T21:56:25.701Z,5.57
2022-09-03T21:59:13.403Z,5.30
2022-09-03T22:01:58.423Z,5.23
2022-09-03T22:04:28.853Z,5.57
2022-09-03T22:07:09.559Z,5.70
2022-09-03T22:09:47.900Z,5.27
2022-09-03T22:12:22.210Z,5.97
2022-09-03T22:14:56.812Z,5.63
2022-09-03T22:17:46.203Z,5.40
2022-09-03T22:20:20.139Z,5.20
2022-09-03T22:22:56.671Z,5.20
2022-09-03T22:25:37.976Z,4.20
2022-09-03T22:28:13.448Z,5.00
2022-09-03T22:30:50.369Z,4.27
2022-09-03T22:33:29.823Z,5.40
2022-09-03T22:36:14.716Z,4.90
2022-09-03T22:39:17.054Z,4.87
2022-09-03T22:42:10.004Z,5.20
2022-09-03T22:45:11.541Z,4.90
2022-09-03T22:47:54.667Z,4.00
2022-09-03T22:50:30.520Z,4.33
2022-09-03T22:53:17.160Z,4.43
2022-09-03T22:55:53.965Z,5.17
2022-09-03T22:58:28.822Z,5.17
2022-09-03T23:01:10.397Z,5.47
2022-09-03T23:03:46.911Z,4.40
2022-09-03T23:06:25.686Z,4.90
2022-09-03T23:09:01.460Z,4.77
2022-09-03T23:11:35.994Z,4.47
2022-09-03T23:14:09.842Z,4.13
2022-09-03T23:16:43.998Z,5.00
2022-09-03T23:21:55.084Z,4.60
2022-09-03T23:24:32.064Z,4.77
2022-09-03T23:27:06.753Z,7.30
2022-09-03T23:29:42.924Z,7.97
2022-09-03T23:32:12.085Z,11.97
2022-09-03T23:34:42.555Z,7.13
2022-09-03T23:37:34.204Z,6.67
2022-09-03T23:40:26.188Z,5.83
2022-09-03T23:43:22.749Z,6.00
2022-09-03T23:46:03.449Z,5.57
2022-09-03T23:48:46.566Z,4.90
2022-09-03T23:51:31.388Z,6.03
2022-09-03T23:54:14.303Z,5.57
2022-09-03T23:57:14.702Z,4.93
